Time;durP1;ratioP1;P1;durP2;ratioP2;P2;SDS_P1;SDS_P2;PMS_P1;PMS_P2;Temp;Humidity;BMP_temperature;BMP_pressure;BME280_temperature;BME280_humidity;BME280_pressure;Samples;Min_cycle;Max_cycle;Signal;HPM_P1;HPM_P2
2023/02/04 00:01:23;;;;;;;0.50;0.50;;;15.30;68.20;;;;;;5086969;28;20078;-19
2023/02/04 00:03:48;;;;;;;0.40;0.40;;;15.30;67.20;;;;;;5086266;28;20020;-22
2023/02/04 00:06:14;;;;;;;0.50;0.50;;;15.30;67.10;;;;;;5084697;28;20212;-19
2023/02/04 00:08:39;;;;;;;0.50;0.50;;;15.30;67.10;;;;;;5087519;28;20447;-20
2023/02/04 00:11:05;;;;;;;1.30;0.50;;;15.30;67.10;;;;;;5088575;28;20050;-20
2023/02/04 00:13:30;;;;;;;0.40;0.40;;;15.30;67.20;;;;;;5087396;28;20031;-21
2023/02/04 00:15:56;;;;;;;0.30;0.30;;;15.30;67.20;;;;;;5088363;28;20549;-29
2023/02/04 00:18:21;;;;;;;0.30;0.30;;;15.30;67.10;;;;;;5086914;28;20035;-21
2023/02/04 00:20:47;;;;;;;0.30;0.30;;;15.30;67.10;;;;;;5086192;28;20123;-21
2023/02/04 00:23:13;;;;;;;0.40;0.40;;;15.30;67.00;;;;;;5090460;28;20511;-22
2023/02/04 00:25:38;;;;;;;0.40;0.40;;;15.30;67.10;;;;;;5085232;28;20055;-25
2023/02/04 00:28:05;;;;;;;0.40;0.40;;;15.30;67.10;;;;;;5085657;28;20036;-25
2023/02/04 00:30:30;;;;;;;0.30;0.30;;;15.30;67.00;;;;;;5085216;28;20515;-28
2023/02/04 00:32:56;;;;;;;0.30;0.30;;;15.30;66.90;;;;;;5087057;28;20036;-24
2023/02/04 00:35:22;;;;;;;0.20;0.20;;;15.30;67.00;;;;;;5087756;28;20054;-20
2023/02/04 00:37:48;;;;;;;0.32;0.30;;;15.40;66.80;;;;;;5086859;28;20444;-20
2023/02/04 00:40:13;;;;;;;0.38;0.38;;;15.40;66.70;;;;;;5086393;28;20024;-23
2023/02/04 00:42:39;;;;;;;0.43;0.43;;;15.40;66.90;;;;;;5087349;28;20103;-20
2023/02/04 00:45:05;;;;;;;0.40;0.40;;;15.30;66.80;;;;;;5087521;28;20035;-22
2023/02/04 00:47:31;;;;;;;0.30;0.30;;;15.40;66.80;;;;;;5086763;28;20024;-20
2023/02/04 00:49:56;;;;;;;0.25;0.25;;;15.30;66.80;;;;;;5087163;28;20078;-21
2023/02/04 00:52:22;;;;;;;0.25;0.25;;;15.30;66.70;;;;;;5085989;28;20437;-22
2023/02/04 00:54:47;;;;;;;0.25;0.25;;;15.30;66.80;;;;;;5101393;28;20021;-26
2023/02/04 00:57:13;;;;;;;0.20;0.20;;;15.30;66.90;;;;;;5084426;28;20316;-20
2023/02/04 00:59:38;;;;;;;0.22;0.22;;;15.40;66.70;;;;;;5087157;28;20189;-20
2023/02/04 01:02:04;;;;;;;0.30;0.30;;;15.50;66.30;;;;;;5087105;28;20074;-20
2023/02/04 01:04:30;;;;;;;0.40;0.40;;;15.50;66.20;;;;;;5085006;28;20559;-24
2023/02/04 01:06:55;;;;;;;0.43;0.40;;;15.50;66.20;;;;;;5085844;28;20658;-20
2023/02/04 01:09:21;;;;;;;0.30;0.30;;;15.50;66.00;;;;;;5086236;28;20141;-19
2023/02/04 01:11:46;;;;;;;0.20;0.20;;;15.40;66.20;;;;;;5085164;28;20047;-27
2023/02/04 01:14:12;;;;;;;0.30;0.30;;;15.50;66.20;;;;;;5088205;28;21181;-20
2023/02/04 01:16:37;;;;;;;0.40;0.40;;;15.50;66.20;;;;;;5088018;28;20028;-20
2023/02/04 01:19:03;;;;;;;0.30;0.30;;;15.60;65.70;;;;;;5083046;28;20031;-21
2023/02/04 01:21:29;;;;;;;0.10;0.10;;;15.70;65.40;;;;;;5086986;28;20032;-20
2023/02/04 01:23:54;;;;;;;0.20;0.20;;;15.60;65.30;;;;;;5086417;28;20036;-20
2023/02/04 01:26:20;;;;;;;0.20;0.20;;;15.60;65.50;;;;;;5089895;28;20035;-20
2023/02/04 01:28:46;;;;;;;0.38;0.38;;;15.70;65.50;;;;;;5085404;28;20518;-20
2023/02/04 01:31:12;;;;;;;0.30;0.30;;;15.60;65.40;;;;;;5086594;28;20021;-20
2023/02/04 01:33:37;;;;;;;0.30;0.30;;;15.60;65.50;;;;;;5087179;28;20500;-20
2023/02/04 01:36:03;;;;;;;0.40;0.40;;;15.60;65.60;;;;;;5083917;28;20732;-25
2023/02/04 01:38:28;;;;;;;0.38;0.38;;;15.40;66.00;;;;;;5085743;28;20028;-20
2023/02/04 01:40:54;;;;;;;0.30;0.30;;;15.80;65.30;;;;;;5084593;28;20050;-21
2023/02/04 01:43:21;;;;;;;0.35;0.35;;;15.60;65.10;;;;;;5083831;28;20063;-20
2023/02/04 01:45:47;;;;;;;0.10;0.10;;;15.60;65.30;;;;;;5086109;28;20024;-22
2023/02/04 01:48:19;;;;;;;0.30;0.30;;;15.70;65.90;;;;;;5066519;28;20402;-21
2023/02/04 01:50:55;;;;;;;0.20;0.20;;;15.70;65.10;;;;;;5085453;28;20680;-27
2023/02/04 01:53:22;;;;;;;0.30;0.30;;;15.60;65.20;;;;;;5086086;28;20026;-21
2023/02/04 01:55:49;;;;;;;0.30;0.30;;;15.80;65.00;;;;;;5068797;28;20034;-20
2023/02/04 01:58:15;;;;;;;0.38;0.38;;;15.80;64.60;;;;;;5085362;28;20019;-21
2023/02/04 02:00:41;;;;;;;0.30;0.30;;;15.80;64.50;;;;;;5085175;28;20031;-21
2023/02/04 02:03:09;;;;;;;0.30;0.30;;;15.70;64.70;;;;;;5084654;28;20060;-21
2023/02/04 02:05:46;;;;;;;0.20;0.20;;;15.60;65.30;;;;;;5082413;28;20066;-11
2023/02/04 02:08:12;;;;;;;0.20;0.20;;;15.70;65.10;;;;;;5084183;28;20012;-12
2023/02/04 02:10:38;;;;;;;0.30;0.30;;;15.70;64.90;;;;;;5082936;28;20142;-12
2023/02/04 02:13:04;;;;;;;0.50;0.50;;;15.70;65.00;;;;;;5067667;28;20037;-12
2023/02/04 02:15:30;;;;;;;0.40;0.40;;;15.80;64.80;;;;;;5066638;28;20052;-15
2023/02/04 02:17:56;;;;;;;0.25;0.25;;;15.60;65.00;;;;;;5067557;28;20076;-12
2023/02/04 02:20:22;;;;;;;0.30;0.30;;;15.60;65.20;;;;;;5085522;28;20506;-12
2023/02/04 02:23:00;;;;;;;0.32;0.32;;;15.70;64.70;;;;;;5067811;28;20062;-12
2023/02/04 02:25:25;;;;;;;0.43;0.20;;;15.70;64.60;;;;;;5080748;28;20024;-15
2023/02/04 02:27:51;;;;;;;0.28;0.28;;;15.90;64.30;;;;;;5082787;28;20468;-12
2023/02/04 02:30:18;;;;;;;0.20;0.20;;;15.80;64.40;;;;;;5085470;28;20085;-12
2023/02/04 02:32:44;;;;;;;0.30;0.30;;;15.80;64.50;;;;;;5083107;28;20501;-11
2023/02/04 02:35:10;;;;;;;0.30;0.30;;;15.70;64.50;;;;;;5083832;28;20036;-12
2023/02/04 02:37:36;;;;;;;0.17;0.17;;;15.70;64.50;;;;;;5066911;28;20025;-20
2023/02/04 02:40:02;;;;;;;0.20;0.20;;;15.70;64.70;;;;;;5082629;28;20119;-12
2023/02/04 02:42:27;;;;;;;0.20;0.20;;;15.70;64.60;;;;;;5084308;28;20028;-11
2023/02/04 02:44:53;;;;;;;0.30;0.30;;;15.70;64.40;;;;;;5082448;28;20145;-12
2023/02/04 02:47:19;;;;;;;0.20;0.20;;;15.70;64.40;;;;;;5082608;28;20020;-12
2023/02/04 02:49:50;;;;;;;0.20;0.20;;;15.70;64.40;;;;;;5067566;28;20133;-12
2023/02/04 02:52:15;;;;;;;0.30;0.30;;;15.70;64.60;;;;;;5068378;28;20032;-12
2023/02/04 02:54:41;;;;;;;0.10;0.10;;;15.60;64.60;;;;;;5083346;28;20027;-12
2023/02/04 02:57:15;;;;;;;0.20;0.20;;;15.70;64.70;;;;;;5082395;28;20032;-12
2023/02/04 02:59:41;;;;;;;0.20;0.20;;;15.70;64.50;;;;;;5067160;28;20058;-12
2023/02/04 03:02:07;;;;;;;0.20;0.20;;;15.80;64.40;;;;;;5084853;28;20064;-12
2023/02/04 03:04:34;;;;;;;0.20;0.20;;;15.80;64.30;;;;;;5081621;28;20048;-12
2023/02/04 03:07:00;;;;;;;0.30;0.30;;;15.70;64.50;;;;;;5086003;28;20473;-12
2023/02/04 03:09:25;;;;;;;0.20;0.20;;;15.70;64.40;;;;;;5083107;28;20035;-12
2023/02/04 03:11:51;;;;;;;0.22;0.15;;;15.70;64.30;;;;;;5082563;28;20024;-12
2023/02/04 03:14:17;;;;;;;0.20;0.20;;;15.80;64.00;;;;;;5085716;28;20028;-12
2023/02/04 03:16:43;;;;;;;0.15;0.10;;;15.80;64.10;;;;;;5083264;28;20024;-12
2023/02/04 03:19:08;;;;;;;0.17;0.17;;;15.80;64.10;;;;;;5082164;28;20562;-12
2023/02/04 03:21:34;;;;;;;0.25;0.20;;;15.80;64.10;;;;;;5083850;28;20062;-11
2023/02/04 03:24:00;;;;;;;0.50;0.20;;;15.70;64.20;;;;;;5082401;28;20071;-20
2023/02/04 03:26:25;;;;;;;0.20;0.20;;;15.70;64.40;;;;;;5089602;28;20157;-12
2023/02/04 03:28:53;;;;;;;0.20;0.20;;;15.70;64.40;;;;;;5085226;28;20099;-12
2023/02/04 03:31:18;;;;;;;0.17;0.17;;;15.60;64.50;;;;;;5087262;28;20520;-12
2023/02/04 03:33:44;;;;;;;0.20;0.20;;;15.70;64.40;;;;;;5088383;28;20107;-12
2023/02/04 03:36:10;;;;;;;0.30;0.30;;;15.60;64.50;;;;;;5086025;28;20033;-13
2023/02/04 03:38:35;;;;;;;0.20;0.20;;;15.60;64.40;;;;;;5088001;28;20056;-12
2023/02/04 03:41:01;;;;;;;0.50;0.50;;;15.70;64.40;;;;;;5088338;28;20065;-12
2023/02/04 03:43:26;;;;;;;0.30;0.30;;;15.70;64.10;;;;;;5087175;28;20115;-17
2023/02/04 03:45:52;;;;;;;0.30;0.30;;;15.70;64.40;;;;;;5088260;28;20020;-12
2023/02/04 03:48:18;;;;;;;0.20;0.20;;;15.70;64.40;;;;;;5087815;28;20481;-12
2023/02/04 03:50:43;;;;;;;0.30;0.30;;;15.70;64.30;;;;;;5085559;28;20161;-12
2023/02/04 03:53:09;;;;;;;0.40;0.30;;;15.60;64.30;;;;;;5089489;28;20054;-12
2023/02/04 03:55:34;;;;;;;0.20;0.20;;;15.70;64.40;;;;;;5087434;28;20024;-11
2023/02/04 03:58:01;;;;;;;0.20;0.20;;;15.60;64.40;;;;;;5086120;28;20066;-11
2023/02/04 04:00:27;;;;;;;0.10;0.10;;;15.70;64.20;;;;;;5088458;28;20535;-12
2023/02/04 04:02:52;;;;;;;0.20;0.20;;;15.70;64.20;;;;;;5088675;28;20219;-11
2023/02/04 04:05:18;;;;;;;0.20;0.20;;;15.70;64.10;;;;;;5089600;28;20741;-12
2023/02/04 04:07:44;;;;;;;0.30;0.30;;;15.70;64.20;;;;;;5085656;28;20024;-12
2023/02/04 04:10:10;;;;;;;0.10;0.10;;;15.60;64.30;;;;;;5086100;28;20509;-12
2023/02/04 04:12:35;;;;;;;0.25;0.20;;;15.60;64.30;;;;;;5089046;28;20035;-11
2023/02/04 04:15:01;;;;;;;0.20;0.20;;;15.60;64.30;;;;;;5088166;28;20424;-12
2023/02/04 04:17:26;;;;;;;0.22;0.20;;;15.70;64.30;;;;;;5088767;28;20081;-12
2023/02/04 04:19:52;;;;;;;0.10;0.10;;;15.60;64.20;;;;;;5085102;28;20027;-12
2023/02/04 04:22:17;;;;;;;0.10;0.10;;;15.70;64.10;;;;;;5085416;28;20552;-12
2023/02/04 04:24:43;;;;;;;0.10;0.10;;;15.60;64.20;;;;;;5087289;28;20016;-17
2023/02/04 04:27:09;;;;;;;0.15;0.15;;;15.60;64.20;;;;;;5086866;28;20024;-12
2023/02/04 04:29:34;;;;;;;0.10;0.10;;;15.60;64.50;;;;;;5086664;28;20028;-12
2023/02/04 04:32:00;;;;;;;0.10;0.10;;;15.60;64.30;;;;;;5087269;28;20069;-12
2023/02/04 04:34:25;;;;;;;0.10;0.10;;;15.60;64.30;;;;;;5085897;28;20034;-12
2023/02/04 04:36:51;;;;;;;0.00;0.00;;;15.70;64.00;;;;;;5084661;28;20059;-15
2023/02/04 04:39:16;;;;;;;0.30;0.30;;;15.70;64.00;;;;;;5086607;28;20048;-12
2023/02/04 04:41:42;;;;;;;0.10;0.10;;;15.60;64.00;;;;;;5086570;28;20089;-12
2023/02/04 04:44:08;;;;;;;0.30;0.20;;;15.70;64.10;;;;;;5087299;28;20024;-12
2023/02/04 04:46:33;;;;;;;0.13;0.13;;;15.60;64.30;;;;;;5087131;28;20032;-12
2023/02/04 04:48:59;;;;;;;0.20;0.20;;;15.50;64.40;;;;;;5086653;28;20079;-12
2023/02/04 04:51:24;;;;;;;0.20;0.10;;;15.50;64.30;;;;;;5085365;28;20544;-11
2023/02/04 04:53:50;;;;;;;0.20;0.20;;;15.60;64.30;;;;;;5085592;28;20131;-12
2023/02/04 04:56:17;;;;;;;0.20;0.20;;;15.60;64.30;;;;;;5086721;28;20055;-12
2023/02/04 04:58:43;;;;;;;0.10;0.10;;;15.50;64.30;;;;;;5082402;28;20239;-11
2023/02/04 05:01:09;;;;;;;0.20;0.20;;;15.60;64.30;;;;;;5084024;28;20093;-12
2023/02/04 05:03:34;;;;;;;0.20;0.20;;;15.60;64.20;;;;;;5087905;28;20085;-15
2023/02/04 05:06:00;;;;;;;0.65;0.35;;;15.60;64.10;;;;;;5085285;28;20028;-12
2023/02/04 05:08:25;;;;;;;0.10;0.10;;;15.50;64.30;;;;;;5088259;28;20031;-12
2023/02/04 05:10:51;;;;;;;0.13;0.13;;;15.50;64.30;;;;;;5087342;28;20462;-21
2023/02/04 05:13:16;;;;;;;0.05;0.05;;;15.60;64.20;;;;;;5083431;28;20036;-11
2023/02/04 05:15:42;;;;;;;0.10;0.10;;;15.50;64.30;;;;;;5086970;28;20050;-10
2023/02/04 05:18:08;;;;;;;0.10;0.10;;;15.40;64.50;;;;;;5084361;28;20600;-12
2023/02/04 05:20:33;;;;;;;0.28;0.28;;;15.50;64.50;;;;;;5087111;28;20024;-11
2023/02/04 05:23:02;;;;;;;0.20;0.20;;;15.50;64.20;;;;;;5087427;28;20028;-12
2023/02/04 05:25:27;;;;;;;0.20;0.20;;;15.50;64.30;;;;;;5082546;28;20043;-12
2023/02/04 05:27:53;;;;;;;0.17;0.17;;;15.50;64.10;;;;;;5086295;28;20509;-12
2023/02/04 05:30:19;;;;;;;0.20;0.20;;;15.60;64.20;;;;;;5085102;28;20067;-12
2023/02/04 05:32:44;;;;;;;0.20;0.20;;;15.60;64.10;;;;;;5085126;28;20037;-16
2023/02/04 05:35:10;;;;;;;0.10;0.10;;;15.60;63.90;;;;;;5086714;28;20048;-12
2023/02/04 05:37:36;;;;;;;0.20;0.20;;;15.50;64.10;;;;;;5083452;28;20392;-12
2023/02/04 05:40:01;;;;;;;0.10;0.10;;;15.50;64.20;;;;;;5085125;28;20568;-11
2023/02/04 05:42:27;;;;;;;0.17;0.17;;;15.50;64.20;;;;;;5083749;28;20034;-11
2023/02/04 05:44:52;;;;;;;0.10;0.10;;;15.60;64.10;;;;;;5085774;28;20024;-12
2023/02/04 05:47:19;;;;;;;0.10;0.10;;;15.60;63.80;;;;;;5087364;28;20099;-17
2023/02/04 05:49:45;;;;;;;0.10;0.10;;;15.50;64.00;;;;;;5085364;28;20047;-12
2023/02/04 05:52:10;;;;;;;0.10;0.10;;;15.60;64.00;;;;;;5084676;28;20405;-12
2023/02/04 05:54:36;;;;;;;0.10;0.10;;;15.60;64.00;;;;;;5085367;28;20619;-11
2023/02/04 05:57:01;;;;;;;0.13;0.13;;;15.60;64.80;;;;;;5084527;28;20084;-20
2023/02/04 05:59:27;;;;;;;0.25;0.25;;;15.50;64.20;;;;;;5087985;28;20024;-12
2023/02/04 06:01:53;;;;;;;0.10;0.10;;;15.40;64.20;;;;;;5084191;28;20039;-12
2023/02/04 06:04:18;;;;;;;0.20;0.10;;;15.40;64.20;;;;;;5085124;28;20020;-12
2023/02/04 06:06:44;;;;;;;0.10;0.10;;;15.50;64.30;;;;;;5084014;28;20565;-12
2023/02/04 06:09:10;;;;;;;0.08;0.08;;;15.50;64.40;;;;;;5081087;28;20028;-12
2023/02/04 06:11:35;;;;;;;0.17;0.17;;;15.50;64.20;;;;;;5086305;28;20028;-20
2023/02/04 06:14:01;;;;;;;0.05;0.05;;;15.50;64.00;;;;;;5084112;28;20478;-17
2023/02/04 06:16:26;;;;;;;0.10;0.10;;;15.40;64.20;;;;;;5084563;28;20050;-19
2023/02/04 06:18:52;;;;;;;0.10;0.10;;;15.50;64.20;;;;;;5083730;28;20524;-12
2023/02/04 06:21:18;;;;;;;0.10;0.10;;;15.40;64.20;;;;;;5084012;28;20165;-15
2023/02/04 06:23:43;;;;;;;0.10;0.10;;;15.40;64.20;;;;;;5083542;28;20031;-13
2023/02/04 06:26:09;;;;;;;0.10;0.10;;;15.40;64.20;;;;;;5085080;28;20083;-16
2023/02/04 06:28:34;;;;;;;0.30;0.05;;;15.40;64.30;;;;;;5084419;28;20036;-12
2023/02/04 06:31:00;;;;;;;0.20;0.15;;;15.40;64.20;;;;;;5083756;28;20024;-11
2023/02/04 06:33:25;;;;;;;0.10;0.10;;;15.50;64.20;;;;;;5085088;28;20042;-12
2023/02/04 06:35:51;;;;;;;0.10;0.10;;;15.60;64.00;;;;;;5083578;28;20412;-12
2023/02/04 06:38:17;;;;;;;0.00;0.00;;;15.50;63.80;;;;;;5084710;28;20028;-12
2023/02/04 06:40:42;;;;;;;0.10;0.10;;;15.50;63.90;;;;;;5083094;28;20488;-17
2023/02/04 06:43:08;;;;;;;0.28;0.28;;;15.50;64.00;;;;;;5083698;28;20036;-12
2023/02/04 06:45:34;;;;;;;0.28;0.13;;;15.50;63.90;;;;;;5084243;28;20382;-12
2023/02/04 06:48:00;;;;;;;0.10;0.10;;;15.50;63.90;;;;;;5083294;28;20027;-11
2023/02/04 06:50:25;;;;;;;0.32;0.28;;;15.50;64.00;;;;;;5085523;28;20025;-12
2023/02/04 06:52:51;;;;;;;0.10;0.10;;;15.50;64.10;;;;;;5083555;28;20377;-12
2023/02/04 06:55:17;;;;;;;0.10;0.10;;;15.40;64.90;;;;;;5083556;28;20031;-13
2023/02/04 06:57:42;;;;;;;0.10;0.10;;;15.40;64.20;;;;;;5083542;28;20020;-12
2023/02/04 07:00:10;;;;;;;0.10;0.10;;;15.40;64.20;;;;;;5083074;28;20174;-11
2023/02/04 07:02:36;;;;;;;0.10;0.10;;;15.40;64.20;;;;;;5085759;28;20344;-12
2023/02/04 07:05:02;;;;;;;0.10;0.00;;;15.40;64.20;;;;;;5082762;28;20502;-16
2023/02/04 07:07:28;;;;;;;0.32;0.10;;;15.40;64.20;;;;;;5085274;28;20099;-12
2023/02/04 07:09:53;;;;;;;0.10;0.10;;;15.40;64.20;;;;;;5084615;28;20107;-12
2023/02/04 07:12:19;;;;;;;0.10;0.10;;;15.40;64.20;;;;;;5084732;28;20028;-12
2023/02/04 07:14:44;;;;;;;0.10;0.10;;;15.40;64.30;;;;;;5084042;28;20028;-11
2023/02/04 07:17:10;;;;;;;0.00;0.00;;;15.30;64.20;;;;;;5086867;28;20035;-14
2023/02/04 07:19:36;;;;;;;0.10;0.10;;;15.30;64.40;;;;;;5084080;28;20111;-18
2023/02/04 07:22:02;;;;;;;0.10;0.10;;;15.40;64.30;;;;;;5083677;28;20393;-12
2023/02/04 07:24:28;;;;;;;0.10;0.10;;;15.40;64.20;;;;;;5085454;28;20396;-12
2023/02/04 07:26:53;;;;;;;0.10;0.10;;;15.30;64.40;;;;;;5081352;28;20021;-12
2023/02/04 07:29:19;;;;;;;0.20;0.10;;;15.30;64.10;;;;;;5084783;28;20472;-18
2023/02/04 07:31:45;;;;;;;0.10;0.10;;;15.40;64.20;;;;;;5085651;28;20024;-12
2023/02/04 07:34:14;;;;;;;0.13;0.10;;;15.40;64.20;;;;;;5082203;28;20504;-12
2023/02/04 07:36:39;;;;;;;0.10;0.10;;;15.40;64.20;;;;;;5077880;28;20028;-13
2023/02/04 07:39:05;;;;;;;0.20;0.20;;;15.30;64.10;;;;;;5081754;28;20122;-11
2023/02/04 07:41:31;;;;;;;0.20;0.20;;;15.40;64.20;;;;;;5083938;28;20447;-12
2023/02/04 07:43:57;;;;;;;0.20;0.10;;;15.50;64.10;;;;;;5083162;28;20033;-14
2023/02/04 07:46:22;;;;;;;0.10;0.10;;;15.40;64.10;;;;;;5082495;28;20500;-11
2023/02/04 07:48:48;;;;;;;0.20;0.20;;;15.40;64.20;;;;;;5082677;28;20054;-11
2023/02/04 07:51:13;;;;;;;0.10;0.10;;;15.30;64.10;;;;;;5085676;28;20020;-12
2023/02/04 07:53:39;;;;;;;0.22;0.20;;;15.30;64.30;;;;;;5084493;28;20457;-17
2023/02/04 07:56:05;;;;;;;0.10;0.10;;;15.30;64.20;;;;;;5084931;28;20032;-12
2023/02/04 07:58:30;;;;;;;0.10;0.10;;;15.40;64.20;;;;;;5080633;28;20024;-11
2023/02/04 08:00:56;;;;;;;0.10;0.10;;;15.40;64.20;;;;;;5083418;28;20024;-12
2023/02/04 08:03:21;;;;;;;0.08;0.08;;;15.30;64.20;;;;;;5081432;28;20574;-11
2023/02/04 08:05:47;;;;;;;0.10;0.10;;;15.30;64.20;;;;;;5083668;28;20043;-21
2023/02/04 08:08:13;;;;;;;0.10;0.10;;;15.40;64.30;;;;;;5082924;28;20107;-22
2023/02/04 08:10:39;;;;;;;0.10;0.10;;;15.40;64.10;;;;;;5085726;28;20053;-22
2023/02/04 08:13:05;;;;;;;0.30;0.30;;;15.30;64.20;;;;;;5087695;28;20032;-20
2023/02/04 08:15:31;;;;;;;0.10;0.10;;;15.40;64.20;;;;;;5085791;28;20398;-20
2023/02/04 08:17:56;;;;;;;0.10;0.10;;;15.40;64.20;;;;;;5087353;28;20543;-22
2023/02/04 08:20:22;;;;;;;0.13;0.10;;;15.40;64.20;;;;;;5088252;28;20393;-21
2023/02/04 08:22:47;;;;;;;0.08;0.08;;;15.40;64.10;;;;;;5086020;28;20505;-20
2023/02/04 08:25:13;;;;;;;0.13;0.13;;;15.30;64.30;;;;;;5086768;28;20028;-20
2023/02/04 08:27:38;;;;;;;0.10;0.10;;;15.30;64.30;;;;;;5085711;28;20032;-20
2023/02/04 08:30:04;;;;;;;0.10;0.10;;;15.40;64.20;;;;;;5087582;28;20477;-20
2023/02/04 08:32:30;;;;;;;0.20;0.10;;;15.40;64.00;;;;;;5086120;28;20024;-23
2023/02/04 08:34:57;;;;;;;0.10;0.10;;;15.40;63.90;;;;;;5086369;28;20045;-20
2023/02/04 08:37:22;;;;;;;0.38;0.20;;;15.40;64.00;;;;;;5088476;28;20149;-22
2023/02/04 08:39:48;;;;;;;0.17;0.17;;;15.40;63.80;;;;;;5085655;28;20111;-24
2023/02/04 08:42:14;;;;;;;0.10;0.10;;;15.40;64.00;;;;;;5084368;28;20047;-25
2023/02/04 08:44:40;;;;;;;0.10;0.10;;;15.40;64.10;;;;;;5086723;28;20028;-25
2023/02/04 08:47:06;;;;;;;0.00;0.00;;;15.40;64.20;;;;;;5100769;28;20038;-20
2023/02/04 08:49:31;;;;;;;0.00;0.00;;;15.40;64.10;;;;;;5087126;28;20508;-21
2023/02/04 08:51:57;;;;;;;0.10;0.10;;;15.40;64.20;;;;;;5087746;28;20016;-19
2023/02/04 08:54:24;;;;;;;0.10;0.10;;;15.40;64.20;;;;;;5084902;28;20020;-22
2023/02/04 08:56:50;;;;;;;0.17;0.10;;;15.30;64.10;;;;;;5085735;28;20528;-26
2023/02/04 08:59:15;;;;;;;0.10;0.10;;;15.40;64.00;;;;;;5087202;28;20158;-21
2023/02/04 09:01:41;;;;;;;0.20;0.20;;;15.40;64.20;;;;;;5086831;28;20691;-20
2023/02/04 09:04:06;;;;;;;0.10;0.10;;;15.40;64.20;;;;;;5085779;28;20028;-31
2023/02/04 09:06:32;;;;;;;0.10;0.10;;;15.40;64.20;;;;;;5084264;28;20400;-22
2023/02/04 09:08:58;;;;;;;0.35;0.20;;;15.30;64.10;;;;;;5083334;28;20138;-22
2023/02/04 09:11:23;;;;;;;0.22;0.15;;;15.40;64.20;;;;;;5086780;28;20031;-20
2023/02/04 09:13:49;;;;;;;0.10;0.10;;;15.30;64.40;;;;;;5086904;28;20030;-20
2023/02/04 09:16:16;;;;;;;0.20;0.20;;;15.30;64.40;;;;;;5084016;28;20397;-20
2023/02/04 09:18:42;;;;;;;0.10;0.10;;;15.20;64.30;;;;;;5085235;28;20024;-19
2023/02/04 09:21:07;;;;;;;0.10;0.10;;;15.10;65.00;;;;;;5085648;28;20403;-20
2023/02/04 09:23:33;;;;;;;0.20;0.20;;;15.10;65.40;;;;;;5086320;28;20126;-20
2023/02/04 09:26:00;;;;;;;0.13;0.13;;;15.20;64.80;;;;;;5085042;28;20032;-27
2023/02/04 09:28:25;;;;;;;0.10;0.10;;;15.30;64.50;;;;;;5084680;28;20149;-25
2023/02/04 09:30:51;;;;;;;0.10;0.10;;;15.40;64.20;;;;;;5085425;28;20103;-22
2023/02/04 09:33:17;;;;;;;0.10;0.10;;;15.40;65.00;;;;;;5084360;28;20031;-27
2023/02/04 09:35:42;;;;;;;0.20;0.20;;;15.40;64.20;;;;;;5084442;28;20041;-25
2023/02/04 09:38:08;;;;;;;0.10;0.10;;;15.50;64.10;;;;;;5085221;28;20032;-26
2023/02/04 09:40:35;;;;;;;0.10;0.10;;;15.50;64.00;;;;;;5086329;28;20024;-24
2023/02/04 09:43:01;;;;;;;0.20;0.20;;;15.50;63.80;;;;;;5082075;28;20570;-29
2023/02/04 09:45:28;;;;;;;0.45;0.20;;;15.40;63.90;;;;;;5084545;28;20075;-20
2023/02/04 09:47:57;;;;;;;0.20;0.20;;;15.40;64.20;;;;;;5087383;28;20043;-26
2023/02/04 09:50:24;;;;;;;0.00;0.00;;;15.40;64.20;;;;;;5083699;28;20028;-22
2023/02/04 09:52:51;;;;;;;0.10;0.10;;;15.30;64.20;;;;;;5084469;28;20052;-20
2023/02/04 09:55:18;;;;;;;0.15;0.15;;;15.40;64.20;;;;;;5067249;28;20081;-23
2023/02/04 09:57:44;;;;;;;0.10;0.10;;;15.30;64.40;;;;;;5083852;28;20029;-25
2023/02/04 10:00:20;;;;;;;0.20;0.20;;;15.30;64.20;;;;;;5083170;28;20020;-20
2023/02/04 10:02:46;;;;;;;0.40;0.20;;;15.40;64.30;;;;;;5083784;28;20047;-23
2023/02/04 10:05:16;;;;;;;0.20;0.20;;;15.40;64.30;;;;;;5088135;28;20020;-23
2023/02/04 10:07:42;;;;;;;0.10;0.10;;;15.30;64.30;;;;;;5085329;28;20110;-25
2023/02/04 10:10:21;;;;;;;0.30;0.30;;;15.30;64.40;;;;;;5084675;28;20107;-23
2023/02/04 10:12:46;;;;;;;0.20;0.20;;;15.30;64.30;;;;;;5081090;28;20024;-24
2023/02/04 10:15:18;;;;;;;0.30;0.30;;;15.40;64.20;;;;;;5085658;28;20393;-23
2023/02/04 10:17:44;;;;;;;0.20;0.20;;;15.40;64.20;;;;;;5084064;28;20027;-20
2023/02/04 10:20:20;;;;;;;0.20;0.20;;;15.40;64.20;;;;;;5080965;28;20016;-19
2023/02/04 10:22:46;;;;;;;0.13;0.13;;;15.40;64.20;;;;;;5083596;28;20058;-22
2023/02/04 10:25:17;;;;;;;0.30;0.30;;;15.30;64.40;;;;;;5066317;28;20020;-20
2023/02/04 10:27:50;;;;;;;0.10;0.10;;;15.40;64.40;;;;;;5084682;28;20020;-21
2023/02/04 10:30:42;;;;;;;0.15;0.10;;;15.40;64.40;;;;;;5080321;28;20452;-21
2023/02/04 10:33:23;;;;;;;0.10;0.10;;;15.40;64.30;;;;;;5082014;28;20508;-20
2023/02/04 10:35:53;;;;;;;0.10;0.10;;;15.30;64.40;;;;;;5081784;28;20057;-21
2023/02/04 10:38:18;;;;;;;0.20;0.20;;;15.30;64.30;;;;;;5085145;28;20027;-20
2023/02/04 10:40:45;;;;;;;0.10;0.10;;;15.40;64.50;;;;;;5084505;28;20166;-22
2023/02/04 10:43:16;;;;;;;0.30;0.10;;;15.30;64.40;;;;;;5084877;28;20035;-21
2023/02/04 10:45:46;;;;;;;0.17;0.10;;;15.30;64.40;;;;;;5082838;28;20024;-20
2023/02/04 10:48:18;;;;;;;0.10;0.10;;;15.30;64.40;;;;;;5082586;28;20025;-20
2023/02/04 10:50:45;;;;;;;0.10;0.10;;;15.40;64.50;;;;;;5085768;28;20054;-20
2023/02/04 10:55:55;;;;;;;0.10;0.10;;;15.30;64.30;;;;;;5084469;28;20109;-20
2023/02/04 10:58:26;;;;;;;0.10;0.10;;;15.40;64.20;;;;;;5082170;28;20031;-20
2023/02/04 11:00:51;;;;;;;0.20;0.20;;;15.30;64.30;;;;;;5081816;28;20078;-23
2023/02/04 11:03:24;;;;;;;0.32;0.17;;;15.40;64.30;;;;;;5081613;28;20064;-20
2023/02/04 11:05:49;;;;;;;0.10;0.10;;;15.30;64.20;;;;;;5082132;28;20036;-21
2023/02/04 11:08:22;;;;;;;0.08;0.08;;;15.30;64.40;;;;;;5086018;28;20511;-20
2023/02/04 11:10:55;;;;;;;0.17;0.10;;;15.30;64.30;;;;;;5085170;28;20481;-21
2023/02/04 11:13:45;;;;;;;0.20;0.20;;;15.30;64.30;;;;;;5082622;28;20106;-25
2023/02/04 11:16:16;;;;;;;0.10;0.10;;;15.30;64.40;;;;;;5079818;28;20435;-20
2023/02/04 11:18:57;;;;;;;0.17;0.17;;;15.40;64.20;;;;;;5085087;28;20032;-20
2023/02/04 11:21:31;;;;;;;0.10;0.10;;;15.30;64.10;;;;;;5082129;28;20035;-21
2023/02/04 11:24:12;;;;;;;0.10;0.10;;;15.30;64.20;;;;;;5082994;28;20035;-25
2023/02/04 11:26:42;;;;;;;0.32;0.10;;;15.40;64.20;;;;;;5081453;28;20031;-22
2023/02/04 11:29:22;;;;;;;0.10;0.10;;;15.40;64.20;;;;;;5083832;28;20547;-20
2023/02/04 11:31:48;;;;;;;0.10;0.10;;;15.40;64.20;;;;;;5082823;28;20374;-22
2023/02/04 11:34:18;;;;;;;0.30;0.17;;;15.40;64.20;;;;;;5082898;28;20027;-19
2023/02/04 11:36:54;;;;;;;0.40;0.40;;;15.40;64.10;;;;;;5081421;28;20474;-21
2023/02/04 11:39:20;;;;;;;0.10;0.10;;;15.40;64.20;;;;;;5082023;28;20104;-23
2023/02/04 11:41:45;;;;;;;0.17;0.17;;;15.40;64.20;;;;;;5083623;28;20048;-20
2023/02/04 11:44:15;;;;;;;0.10;0.10;;;15.30;64.10;;;;;;5085500;28;20036;-24
2023/02/04 11:46:40;;;;;;;0.25;0.25;;;15.30;64.20;;;;;;5087149;28;20016;-23
2023/02/04 11:49:13;;;;;;;0.40;0.20;;;15.20;64.40;;;;;;5087023;28;20028;-24
2023/02/04 11:51:39;;;;;;;0.20;0.13;;;15.40;64.20;;;;;;5071660;28;20016;-21
2023/02/04 11:54:05;;;;;;;0.20;0.20;;;15.30;64.30;;;;;;5087434;28;20040;-21
2023/02/04 11:56:30;;;;;;;1.15;0.38;;;15.30;64.40;;;;;;5088661;28;20028;-20
2023/02/04 11:58:57;;;;;;;0.15;0.15;;;15.30;64.20;;;;;;5087572;28;20481;-20
2023/02/04 12:01:32;;;;;;;0.20;0.20;;;15.30;64.30;;;;;;5084290;28;20020;-21
2023/02/04 12:03:59;;;;;;;0.10;0.10;;;15.30;64.10;;;;;;5085500;28;20032;-23
2023/02/04 12:06:27;;;;;;;0.17;0.17;;;15.30;64.40;;;;;;5086594;28;20027;-21
2023/02/04 12:09:02;;;;;;;0.43;0.30;;;15.30;64.40;;;;;;5087034;28;20027;-21
2023/02/04 12:11:31;;;;;;;0.25;0.20;;;15.40;64.20;;;;;;5086594;28;20055;-20
2023/02/04 12:14:07;;;;;;;0.20;0.20;;;15.40;64.10;;;;;;5086454;28;20035;-20
2023/02/04 12:16:41;;;;;;;0.10;0.10;;;15.40;64.20;;;;;;5085178;28;20028;-23
2023/02/04 12:19:06;;;;;;;0.10;0.10;;;15.30;64.10;;;;;;5084732;28;20051;-22
2023/02/04 12:21:32;;;;;;;0.20;0.20;;;15.30;64.40;;;;;;5086458;28;20541;-19
2023/02/04 12:23:57;;;;;;;0.20;0.20;;;15.30;64.30;;;;;;5086139;28;20058;-22
2023/02/04 12:26:23;;;;;;;0.20;0.20;;;15.40;64.20;;;;;;5089790;28;20035;-25
2023/02/04 12:28:48;;;;;;;0.20;0.20;;;15.30;64.20;;;;;;5087241;28;20059;-20
2023/02/04 12:31:14;;;;;;;0.20;0.20;;;15.40;64.20;;;;;;5085081;28;20419;-20
2023/02/04 12:33:40;;;;;;;0.20;0.20;;;15.30;64.10;;;;;;5085215;28;20043;-20
2023/02/04 12:36:06;;;;;;;0.08;0.08;;;15.20;64.10;;;;;;5086816;28;20491;-20
2023/02/04 12:38:31;;;;;;;0.28;0.25;;;15.20;64.40;;;;;;5087856;28;20559;-21
2023/02/04 12:40:57;;;;;;;0.25;0.20;;;15.30;64.40;;;;;;5086763;28;20553;-20
2023/02/04 12:43:23;;;;;;;0.15;0.15;;;15.40;64.30;;;;;;5085166;28;20028;-20
2023/02/04 12:45:49;;;;;;;0.20;0.20;;;15.30;64.10;;;;;;5083664;28;20114;-19
2023/02/04 12:48:14;;;;;;;0.10;0.10;;;15.40;63.90;;;;;;5085724;28;20123;-20